Terminal Aerodrome Forecast
Issued by NWS Cleveland, OH

Home | Current Version | Previous Version | Graphics & Text | Print | Product List | Glossary On
Versions: 1 2 3 4 5 6 7 8 9 10 11 12 13 14 15 16 17 18
000
FTUS41 KCLE 172320
TAFYNG
TAF
KYNG 172320Z 1800/1824 02011KT P6SM OVC250
     FM181200 07012G20KT P6SM VCSH SCT040 OVC100
     FM181500 07015G25KT P6SM OVC040
     FM181800 08020G30KT P6SM VCSH OVC025=

USA.gov is the U.S. government's official web portal to all federal, state and local government web resources and services.